createdAt,value
2017-10-13T00:01:41.922Z,63.69
2017-10-13T00:04:08.379Z,63.67
2017-10-13T00:06:34.834Z,63.93
2017-10-13T00:09:01.204Z,63.82
2017-10-13T00:11:27.758Z,63.57
2017-10-13T00:13:54.280Z,63.65
2017-10-13T00:16:20.714Z,63.55
2017-10-13T00:18:47.076Z,63.47
2017-10-13T00:21:13.428Z,63.96
2017-10-13T00:23:40.569Z,63.87
2017-10-13T00:26:06.940Z,63.95
2017-10-13T00:28:33.284Z,63.77
2017-10-13T00:30:59.653Z,63.84
2017-10-13T00:33:25.986Z,63.73
2017-10-13T00:35:52.339Z,63.57
2017-10-13T00:38:19.391Z,63.62
2017-10-13T00:40:46.519Z,63.83
2017-10-13T00:43:12.943Z,64.04
2017-10-13T00:45:39.453Z,64.01
2017-10-13T00:48:05.841Z,63.88
2017-10-13T00:50:33.141Z,64.23
2017-10-13T00:52:59.560Z,64.11
2017-10-13T00:55:25.948Z,63.88
2017-10-13T00:57:53.155Z,63.71
2017-10-13T01:00:19.502Z,63.75
2017-10-13T01:02:45.899Z,64.20
2017-10-13T01:05:12.270Z,64.38
2017-10-13T01:07:38.734Z,64.05
2017-10-13T01:10:05.138Z,64.18
2017-10-13T01:12:31.554Z,64.67
2017-10-13T01:14:58.036Z,64.76
2017-10-13T01:17:24.451Z,65.11
2017-10-13T01:19:50.931Z,65.34
2017-10-13T01:22:17.400Z,65.33
2017-10-13T01:24:43.796Z,65.32
2017-10-13T01:27:10.144Z,65.51
2017-10-13T01:29:36.545Z,65.53
2017-10-13T01:32:03.672Z,65.63
2017-10-13T01:34:30.071Z,65.60
2017-10-13T01:36:56.447Z,65.49
2017-10-13T01:39:22.785Z,65.79
2017-10-13T01:41:49.178Z,65.76
2017-10-13T01:44:15.598Z,65.85
2017-10-13T01:46:41.937Z,65.47
2017-10-13T01:49:08.381Z,65.29
2017-10-13T01:51:34.812Z,65.40
2017-10-13T01:54:01.197Z,65.34
2017-10-13T01:56:27.575Z,65.16
2017-10-13T01:58:54.089Z,64.93
2017-10-13T02:01:20.548Z,65.07
2017-10-13T02:03:46.878Z,64.89
2017-10-13T02:06:13.274Z,64.92
2017-10-13T02:08:39.784Z,64.73
2017-10-13T02:11:06.868Z,64.96
2017-10-13T02:13:33.216Z,64.71
2017-10-13T02:15:59.578Z,64.08
2017-10-13T02:18:25.926Z,64.02
2017-10-13T02:20:52.264Z,64.00
2017-10-13T02:23:19.461Z,64.12
2017-10-13T02:25:45.894Z,64.21
2017-10-13T02:28:12.329Z,64.32
2017-10-13T02:30:38.747Z,64.44
2017-10-13T02:33:05.161Z,64.51
2017-10-13T02:35:31.558Z,64.58
2017-10-13T02:37:57.972Z,64.47
2017-10-13T02:40:24.501Z,64.60
2017-10-13T02:42:50.896Z,65.00
2017-10-13T02:45:18.105Z,65.04
2017-10-13T02:47:44.552Z,64.87
2017-10-13T02:50:10.881Z,65.11
2017-10-13T02:52:37.420Z,65.15
2017-10-13T02:55:03.793Z,65.29
2017-10-13T02:57:30.253Z,65.37
2017-10-13T02:59:56.612Z,65.52
2017-10-13T03:02:23.116Z,65.60
2017-10-13T03:04:49.689Z,65.74
2017-10-13T03:07:16.428Z,65.96
2017-10-13T03:09:42.834Z,65.96
2017-10-13T03:12:09.208Z,66.18
2017-10-13T03:14:36.361Z,66.46
2017-10-13T03:17:03.592Z,66.90
2017-10-13T03:19:30.157Z,67.22
2017-10-13T03:21:56.568Z,67.30
2017-10-13T03:24:23.022Z,67.15
2017-10-13T03:26:50.123Z,67.05
2017-10-13T03:29:16.505Z,66.94
2017-10-13T03:31:43.589Z,66.79
2017-10-13T03:34:09.945Z,66.54
2017-10-13T03:36:37.381Z,66.09
2017-10-13T03:39:03.803Z,65.71
2017-10-13T03:41:30.210Z,65.52
2017-10-13T03:43:56.663Z,65.09
2017-10-13T03:46:23.145Z,64.50
2017-10-13T03:48:49.497Z,63.95
2017-10-13T03:51:15.897Z,63.48
2017-10-13T03:53:42.277Z,63.00
2017-10-13T03:56:10.217Z,62.86
2017-10-13T03:58:36.600Z,62.67
2017-10-13T04:01:02.988Z,62.31
2017-10-13T04:03:29.396Z,61.74
2017-10-13T04:05:55.914Z,61.70
2017-10-13T04:08:22.304Z,61.43
2017-10-13T04:10:49.493Z,61.34
2017-10-13T04:13:15.899Z,61.54
2017-10-13T04:15:42.301Z,61.50
2017-10-13T04:18:08.924Z,61.47
2017-10-13T04:20:35.376Z,61.35
2017-10-13T04:23:01.835Z,61.07
2017-10-13T04:25:29.013Z,61.13
2017-10-13T04:27:55.391Z,60.94
2017-10-13T04:30:21.778Z,60.91
2017-10-13T04:32:48.146Z,60.92
2017-10-13T04:35:14.509Z,60.94
2017-10-13T04:37:41.641Z,60.67
2017-10-13T04:40:08.036Z,60.80
2017-10-13T04:42:34.410Z,60.94
2017-10-13T04:45:00.827Z,60.67
2017-10-13T04:47:27.164Z,60.59
2017-10-13T04:52:19.896Z,60.69
2017-10-13T04:54:46.275Z,60.60
2017-10-13T04:57:12.715Z,60.43
2017-10-13T04:59:39.268Z,60.62
2017-10-13T05:02:05.707Z,60.53
2017-10-13T05:04:32.101Z,61.03
2017-10-13T05:06:59.322Z,61.25
2017-10-13T05:09:25.779Z,61.50
2017-10-13T05:11:52.176Z,61.29
2017-10-13T05:14:18.624Z,61.09
2017-10-13T05:16:44.948Z,61.42
2017-10-13T05:19:11.273Z,61.66
2017-10-13T05:21:37.699Z,61.39
2017-10-13T05:24:04.039Z,61.40
2017-10-13T05:26:30.458Z,61.76
2017-10-13T05:28:56.842Z,61.59
2017-10-13T05:31:23.228Z,61.03
2017-10-13T05:33:49.557Z,61.28
2017-10-13T05:36:15.859Z,61.34
2017-10-13T05:38:42.890Z,61.51
2017-10-13T05:41:09.217Z,61.48
2017-10-13T05:43:35.514Z,61.47
2017-10-13T05:46:01.838Z,61.45
2017-10-13T05:48:28.213Z,61.29
2017-10-13T05:50:54.709Z,61.19
2017-10-13T05:53:21.107Z,61.28
2017-10-13T05:55:48.422Z,61.51
2017-10-13T05:58:14.924Z,61.03
2017-10-13T06:00:41.310Z,61.16
2017-10-13T06:05:34.024Z,61.02
2017-10-13T06:08:00.392Z,60.61
2017-10-13T06:10:27.049Z,60.48
2017-10-13T06:12:53.484Z,60.18
2017-10-13T06:15:19.892Z,60.03
2017-10-13T06:17:46.285Z,60.10
2017-10-13T06:20:12.655Z,60.21
2017-10-13T06:22:39.007Z,60.23
2017-10-13T06:25:06.145Z,60.20
2017-10-13T06:27:32.487Z,60.18
2017-10-13T06:29:58.858Z,60.36
2017-10-13T06:32:25.289Z,60.27
2017-10-13T06:34:51.641Z,60.08
2017-10-13T06:37:17.985Z,59.60
2017-10-13T06:39:44.365Z,59.78
2017-10-13T06:42:11.488Z,59.75
2017-10-13T06:44:38.001Z,60.07
2017-10-13T06:47:04.408Z,60.25
2017-10-13T06:49:30.834Z,59.63
2017-10-13T06:51:57.276Z,59.65
2017-10-13T06:54:24.596Z,59.94
2017-10-13T06:56:51.696Z,60.10
2017-10-13T06:59:18.064Z,59.91
2017-10-13T07:01:45.250Z,60.13
2017-10-13T07:04:12.352Z,60.27
2017-10-13T07:06:38.728Z,60.01
2017-10-13T07:09:05.845Z,59.72
2017-10-13T07:11:32.333Z,59.53
2017-10-13T07:13:59.598Z,59.56
2017-10-13T07:16:25.932Z,60.22
2017-10-13T07:18:52.303Z,60.44
2017-10-13T07:21:18.664Z,60.19
2017-10-13T07:23:45.771Z,60.05
2017-10-13T07:26:12.146Z,59.75
2017-10-13T07:28:39.287Z,58.25
2017-10-13T07:31:06.416Z,57.67
2017-10-13T07:33:32.798Z,57.62
2017-10-13T07:35:59.174Z,57.04
2017-10-13T07:38:25.488Z,57.66
2017-10-13T07:40:51.925Z,57.50
2017-10-13T07:43:18.303Z,57.81
2017-10-13T07:45:45.460Z,57.41
2017-10-13T07:48:11.778Z,57.69
2017-10-13T07:50:38.831Z,58.40
2017-10-13T07:53:05.930Z,57.46
2017-10-13T07:55:32.298Z,55.92
2017-10-13T07:57:58.663Z,56.89
2017-10-13T08:00:25.007Z,56.13
2017-10-13T08:02:51.366Z,54.95
2017-10-13T08:05:17.890Z,54.80
2017-10-13T08:07:44.959Z,55.69
2017-10-13T08:10:11.308Z,55.06
2017-10-13T08:12:37.700Z,54.85
2017-10-13T08:15:04.018Z,54.54
2017-10-13T08:17:30.379Z,53.07
2017-10-13T08:19:56.814Z,53.11
2017-10-13T08:22:23.367Z,53.33
2017-10-13T08:24:50.013Z,53.03
2017-10-13T08:27:17.106Z,53.04
2017-10-13T08:29:43.446Z,53.44
2017-10-13T08:32:09.831Z,53.26
2017-10-13T08:34:36.930Z,53.04
2017-10-13T08:37:03.309Z,53.65
2017-10-13T08:39:30.489Z,52.61
2017-10-13T08:41:56.923Z,52.05
2017-10-13T08:44:23.335Z,51.08
2017-10-13T08:46:50.466Z,50.32
2017-10-13T08:49:16.892Z,50.63
2017-10-13T08:51:43.221Z,49.48
2017-10-13T08:54:09.538Z,48.65
2017-10-13T08:56:35.879Z,49.92
2017-10-13T08:59:02.227Z,49.42
2017-10-13T09:01:28.644Z,48.95
2017-10-13T09:03:55.060Z,47.51
2017-10-13T09:06:21.397Z,47.21
2017-10-13T09:08:47.856Z,46.08
2017-10-13T09:11:14.222Z,46.09
2017-10-13T09:13:40.660Z,48.04
2017-10-13T09:16:07.025Z,48.01
2017-10-13T09:18:33.484Z,48.20
2017-10-13T09:20:59.840Z,49.30
2017-10-13T09:23:26.905Z,49.18
2017-10-13T09:25:53.608Z,48.20
2017-10-13T09:28:19.968Z,47.94
2017-10-13T09:30:46.388Z,47.63
2017-10-13T09:33:13.532Z,48.69
2017-10-13T09:35:39.906Z,49.54
2017-10-13T09:38:06.249Z,49.16
2017-10-13T09:40:32.580Z,49.71
2017-10-13T09:42:58.917Z,50.05
2017-10-13T09:45:25.243Z,49.72
2017-10-13T09:47:51.610Z,49.88
2017-10-13T09:50:18.056Z,50.60
2017-10-13T09:52:44.419Z,49.99
2017-10-13T09:55:10.825Z,49.99
2017-10-13T09:57:37.166Z,50.31
2017-10-13T10:00:04.254Z,50.04
2017-10-13T10:02:30.628Z,49.72
2017-10-13T10:04:57.058Z,49.49
2017-10-13T10:07:23.547Z,49.25
2017-10-13T10:09:49.888Z,46.90
2017-10-13T10:12:16.198Z,46.04
2017-10-13T10:14:42.690Z,44.92
2017-10-13T10:17:09.062Z,45.09
2017-10-13T10:19:35.442Z,46.87
2017-10-13T10:22:01.816Z,47.61
2017-10-13T10:24:28.241Z,45.85
2017-10-13T10:26:55.384Z,47.60
2017-10-13T10:31:55.706Z,47.32
2017-10-13T10:34:22.041Z,48.45
2017-10-13T10:36:48.361Z,47.59
2017-10-13T10:39:14.671Z,49.08
2017-10-13T10:41:40.958Z,48.98
2017-10-13T10:44:08.040Z,47.88
2017-10-13T10:46:34.365Z,47.71
2017-10-13T10:49:00.694Z,48.83
2017-10-13T10:51:27.031Z,48.67
2017-10-13T10:53:53.410Z,48.73
2017-10-13T10:56:19.815Z,48.14
2017-10-13T10:58:46.085Z,47.97
2017-10-13T11:01:12.397Z,48.10
2017-10-13T11:03:38.757Z,48.72
2017-10-13T11:06:05.783Z,48.46
2017-10-13T11:08:32.166Z,46.59
2017-10-13T11:10:58.501Z,41.75
2017-10-13T11:13:24.875Z,39.82
2017-10-13T11:15:51.200Z,39.16
2017-10-13T11:18:17.535Z,41.79
2017-10-13T11:20:43.845Z,42.19
2017-10-13T11:23:10.190Z,37.65
2017-10-13T11:25:36.534Z,32.38
2017-10-13T11:28:02.864Z,32.56
2017-10-13T11:30:29.176Z,38.00
2017-10-13T11:32:55.478Z,37.88
2017-10-13T11:35:21.829Z,40.59
2017-10-13T11:37:48.253Z,42.52
2017-10-13T11:40:14.544Z,42.56
2017-10-13T11:42:41.614Z,40.04
2017-10-13T11:45:08.032Z,40.90
2017-10-13T11:47:35.132Z,46.01
2017-10-13T11:50:01.448Z,47.67
2017-10-13T11:52:29.607Z,47.28
2017-10-13T11:54:56.111Z,47.07
2017-10-13T11:57:23.166Z,46.35
2017-10-13T11:59:50.289Z,41.63
2017-10-13T12:02:16.642Z,37.24
2017-10-13T12:04:43.772Z,41.34
2017-10-13T12:07:10.170Z,42.54
2017-10-13T12:09:36.540Z,44.32
2017-10-13T12:12:03.452Z,44.71
2017-10-13T12:14:29.812Z,42.96
2017-10-13T12:16:56.174Z,42.41
2017-10-13T12:19:23.300Z,39.40
2017-10-13T12:22:02.171Z,40.16
2017-10-13T12:24:28.456Z,38.09
2017-10-13T12:26:54.826Z,35.38
2017-10-13T12:29:21.258Z,33.58
2017-10-13T12:31:47.652Z,31.12
2017-10-13T12:34:14.026Z,28.77
2017-10-13T12:36:40.545Z,28.29
2017-10-13T12:39:06.906Z,28.28
2017-10-13T12:41:33.238Z,29.96
2017-10-13T12:43:59.596Z,31.35
2017-10-13T12:46:25.995Z,33.33
2017-10-13T12:48:52.344Z,32.45
2017-10-13T12:51:18.768Z,36.74
2017-10-13T12:53:45.193Z,39.22
2017-10-13T12:56:11.543Z,42.62
2017-10-13T12:58:37.937Z,42.54
2017-10-13T13:01:04.248Z,39.21
2017-10-13T13:03:31.413Z,35.90
2017-10-13T13:05:58.541Z,34.07
2017-10-13T13:08:24.944Z,31.10
2017-10-13T13:10:51.304Z,33.07
2017-10-13T13:13:17.914Z,36.24
2017-10-13T13:15:44.275Z,34.87
2017-10-13T13:18:11.376Z,35.63
2017-10-13T13:20:37.970Z,36.59
2017-10-13T13:23:05.215Z,31.89
2017-10-13T13:25:32.297Z,31.11
2017-10-13T13:27:59.443Z,29.60
2017-10-13T13:30:27.411Z,31.20
2017-10-13T13:32:53.785Z,30.64
2017-10-13T13:35:20.472Z,32.96
2017-10-13T13:37:46.857Z,35.03
2017-10-13T13:40:13.531Z,32.90
2017-10-13T13:42:39.895Z,30.71
2017-10-13T13:45:07.026Z,32.81
2017-10-13T13:47:34.364Z,33.40
2017-10-13T13:50:00.977Z,35.88
2017-10-13T13:52:27.670Z,38.44
2017-10-13T13:54:54.047Z,40.93
2017-10-13T13:57:20.490Z,41.86
2017-10-13T13:59:46.865Z,42.25
2017-10-13T14:02:14.007Z,40.84
2017-10-13T14:04:40.437Z,38.06
2017-10-13T14:07:06.867Z,38.60
2017-10-13T14:09:33.199Z,40.81
2017-10-13T14:11:59.586Z,41.30
2017-10-13T14:14:26.018Z,39.36
2017-10-13T14:16:52.431Z,40.79
2017-10-13T14:19:18.826Z,41.26
2017-10-13T14:21:45.965Z,44.07
2017-10-13T14:24:12.372Z,44.30
2017-10-13T14:26:38.803Z,44.87
2017-10-13T14:29:05.133Z,45.42
2017-10-13T14:31:31.601Z,43.90
2017-10-13T14:33:57.940Z,42.95
2017-10-13T14:36:24.239Z,41.85
2017-10-13T14:38:50.596Z,40.72
2017-10-13T14:41:16.909Z,37.56
2017-10-13T14:43:43.237Z,34.18
2017-10-13T14:46:09.529Z,32.53
2017-10-13T14:48:35.869Z,30.49
2017-10-13T14:51:02.174Z,30.09
2017-10-13T14:53:29.261Z,29.11
2017-10-13T14:55:55.581Z,30.39
2017-10-13T14:58:22.790Z,31.90
2017-10-13T15:00:49.158Z,33.44
2017-10-13T15:03:15.471Z,36.11
2017-10-13T15:05:42.479Z,37.89
2017-10-13T15:08:08.827Z,40.52
2017-10-13T15:10:35.088Z,42.28
2017-10-13T15:13:01.476Z,43.07
2017-10-13T15:15:27.744Z,43.15
2017-10-13T15:17:54.784Z,44.45
2017-10-13T15:20:21.870Z,45.46
2017-10-13T15:22:48.176Z,47.43
2017-10-13T15:25:21.232Z,47.89
2017-10-13T15:27:53.738Z,48.75
2017-10-13T15:30:26.938Z,48.74
2017-10-13T15:32:59.405Z,49.31
2017-10-13T15:35:32.567Z,49.90
2017-10-13T15:38:05.236Z,49.57
2017-10-13T15:40:37.802Z,50.54
2017-10-13T15:43:10.269Z,50.59
2017-10-13T15:45:42.720Z,50.87
2017-10-13T15:48:15.252Z,51.09
2017-10-13T15:50:47.647Z,52.09
2017-10-13T15:53:14.727Z,52.97
2017-10-13T15:55:41.078Z,54.42
2017-10-13T15:58:07.372Z,54.66
2017-10-13T16:00:33.742Z,55.34
2017-10-13T16:03:00.092Z,56.00
2017-10-13T16:05:26.432Z,57.11
2017-10-13T16:07:52.682Z,57.78
2017-10-13T16:10:19.746Z,57.98
2017-10-13T16:12:46.066Z,58.55
2017-10-13T16:15:13.226Z,58.85
2017-10-13T16:17:39.661Z,59.00
2017-10-13T16:20:05.982Z,59.50
2017-10-13T16:22:33.047Z,59.36
2017-10-13T16:24:59.394Z,59.81
2017-10-13T16:27:25.705Z,60.24
2017-10-13T16:29:52.099Z,60.58
2017-10-13T16:32:18.395Z,61.42
2017-10-13T16:34:44.679Z,62.00
2017-10-13T16:37:11.816Z,62.44
2017-10-13T16:39:38.117Z,63.15
2017-10-13T16:42:04.519Z,63.39
2017-10-13T16:44:30.837Z,63.58
2017-10-13T16:46:57.149Z,63.81
2017-10-13T16:49:23.479Z,63.97
2017-10-13T16:51:49.896Z,64.28
2017-10-13T16:54:16.229Z,64.28
2017-10-13T16:56:42.634Z,64.38
2017-10-13T16:59:09.663Z,64.92
2017-10-13T17:01:35.967Z,65.36
2017-10-13T17:04:03.000Z,65.66
2017-10-13T17:06:29.292Z,65.79
2017-10-13T17:08:55.577Z,66.16
2017-10-13T17:11:22.676Z,66.54
2017-10-13T17:13:49.176Z,66.96
2017-10-13T17:16:15.483Z,67.07
2017-10-13T17:18:42.568Z,67.50
2017-10-13T17:21:08.911Z,67.67
2017-10-13T17:23:35.178Z,67.83
2017-10-13T17:26:01.457Z,68.25
2017-10-13T17:28:27.804Z,68.34
2017-10-13T17:30:54.094Z,68.52
2017-10-13T17:33:21.154Z,68.48
2017-10-13T17:35:47.658Z,68.62
2017-10-13T17:38:13.969Z,69.10
2017-10-13T17:40:40.248Z,69.15
2017-10-13T17:43:06.567Z,69.56
2017-10-13T17:45:33.666Z,69.68
2017-10-13T17:47:59.933Z,70.19
2017-10-13T17:50:26.993Z,70.42
2017-10-13T17:52:54.075Z,70.52
2017-10-13T17:55:20.412Z,70.28
2017-10-13T17:57:46.750Z,70.32
2017-10-13T18:00:13.054Z,70.40
2017-10-13T18:02:39.428Z,70.54
2017-10-13T18:05:05.856Z,70.56
2017-10-13T18:07:33.234Z,70.56
2017-10-13T18:10:00.297Z,70.60
2017-10-13T18:12:27.382Z,70.36
2017-10-13T18:14:53.656Z,70.36
2017-10-13T18:17:20.008Z,70.15
2017-10-13T18:19:47.072Z,70.43
2017-10-13T18:22:13.422Z,70.52
2017-10-13T18:24:39.752Z,70.82
2017-10-13T18:27:06.089Z,70.85
2017-10-13T18:29:32.436Z,70.73
2017-10-13T18:31:59.533Z,70.85
2017-10-13T18:34:26.622Z,70.66
2017-10-13T18:36:52.940Z,70.66
2017-10-13T18:39:19.243Z,70.67
2017-10-13T18:41:46.336Z,70.78
2017-10-13T18:44:12.751Z,70.98
2017-10-13T18:46:39.078Z,70.88
2017-10-13T18:49:05.426Z,70.72
2017-10-13T18:51:32.007Z,70.79
2017-10-13T18:53:58.444Z,70.76
2017-10-13T18:56:24.837Z,70.87
2017-10-13T18:58:51.460Z,70.92
2017-10-13T19:01:17.901Z,70.67
2017-10-13T19:03:44.257Z,70.70
2017-10-13T19:06:10.593Z,70.27
2017-10-13T19:08:37.029Z,69.95
2017-10-13T19:11:03.332Z,69.53
2017-10-13T19:16:30.169Z,68.91
2017-10-13T19:18:57.539Z,68.69
2017-10-13T19:21:23.835Z,68.57
2017-10-13T19:23:51.211Z,68.44
2017-10-13T19:26:17.483Z,68.36
2017-10-13T19:28:43.921Z,68.56
2017-10-13T19:31:10.260Z,68.82
2017-10-13T19:33:36.510Z,68.83
2017-10-13T19:36:02.790Z,68.92
2017-10-13T19:38:34.195Z,69.18
2017-10-13T19:41:01.251Z,69.05
2017-10-13T19:43:29.356Z,68.89
2017-10-13T19:45:55.627Z,69.41
2017-10-13T19:48:21.903Z,69.63
2017-10-13T19:50:48.208Z,70.15
2017-10-13T19:53:16.370Z,70.28
2017-10-13T19:55:42.772Z,70.36
2017-10-13T19:58:09.108Z,70.29
2017-10-13T20:00:35.402Z,70.26
2017-10-13T20:03:01.690Z,70.29
2017-10-13T20:05:28.008Z,70.44
2017-10-13T20:07:54.527Z,70.65
2017-10-13T20:10:20.818Z,70.68
2017-10-13T20:12:47.844Z,70.66
2017-10-13T20:15:23.008Z,71.07
2017-10-13T20:18:01.171Z,71.23
2017-10-13T20:20:33.318Z,71.15
2017-10-13T20:28:59.671Z,71.32
2017-10-13T20:31:26.261Z,71.18
2017-10-13T20:33:53.437Z,71.08
2017-10-13T20:36:20.493Z,70.80
2017-10-13T20:38:47.523Z,70.66
2017-10-13T20:41:13.858Z,70.67
2017-10-13T20:43:40.901Z,70.57
2017-10-13T20:46:07.158Z,70.47
2017-10-13T20:48:33.445Z,70.57
2017-10-13T20:50:59.798Z,70.75
2017-10-13T20:53:33.389Z,70.59
2017-10-13T20:55:59.721Z,70.49
2017-10-13T20:58:26.116Z,70.76
2017-10-13T21:00:52.481Z,70.62
2017-10-13T21:03:18.821Z,70.64
2017-10-13T21:05:45.161Z,70.65
2017-10-13T21:08:12.284Z,70.81
2017-10-13T21:10:38.586Z,70.90
2017-10-13T21:13:04.866Z,70.77
2017-10-13T21:15:31.916Z,70.63
2017-10-13T21:17:58.942Z,70.77
2017-10-13T21:20:25.334Z,70.50
2017-10-13T21:22:51.716Z,70.56
2017-10-13T21:25:18.035Z,70.86
2017-10-13T21:27:44.311Z,70.84
2017-10-13T21:30:10.636Z,71.22
2017-10-13T21:32:37.651Z,71.40
2017-10-13T21:35:03.977Z,71.41
2017-10-13T21:37:30.237Z,71.22
2017-10-13T21:39:57.299Z,71.03
2017-10-13T21:42:23.645Z,70.97
2017-10-13T21:44:49.934Z,71.26
2017-10-13T21:47:16.977Z,71.93
2017-10-13T21:49:43.245Z,71.67
2017-10-13T21:52:09.544Z,71.60
2017-10-13T21:54:36.530Z,71.64
2017-10-13T21:57:02.788Z,71.61
2017-10-13T21:59:29.133Z,71.52
2017-10-13T22:01:55.398Z,71.74
2017-10-13T22:04:23.060Z,71.44
2017-10-13T22:06:49.395Z,71.49
2017-10-13T22:09:16.482Z,71.60
2017-10-13T22:11:42.750Z,71.43
2017-10-13T22:14:16.661Z,71.18
2017-10-13T22:16:43.678Z,70.92
2017-10-13T22:19:09.986Z,70.28
2017-10-13T22:21:36.254Z,70.20
2017-10-13T22:24:02.511Z,69.99
2017-10-13T22:26:29.534Z,70.09
2017-10-13T22:28:55.862Z,69.99
2017-10-13T22:31:22.233Z,70.02
2017-10-13T22:33:48.862Z,69.89
2017-10-13T22:36:15.888Z,69.87
2017-10-13T22:38:42.274Z,70.05
2017-10-13T22:41:08.543Z,69.90
2017-10-13T22:43:34.813Z,69.82
2017-10-13T22:46:01.111Z,69.63
2017-10-13T22:48:27.422Z,70.15
2017-10-13T22:50:53.664Z,69.66
2017-10-13T22:53:19.920Z,69.89
2017-10-13T22:55:46.944Z,69.57
2017-10-13T22:58:13.171Z,69.04
2017-10-13T23:00:39.468Z,69.35
2017-10-13T23:03:05.771Z,69.39
2017-10-13T23:05:32.058Z,69.91
2017-10-13T23:07:58.345Z,69.84
2017-10-13T23:10:24.620Z,69.63
2017-10-13T23:12:50.870Z,69.17
2017-10-13T23:15:17.923Z,69.42
2017-10-13T23:17:44.937Z,69.24
2017-10-13T23:20:11.235Z,68.89
2017-10-13T23:22:37.513Z,68.60
2017-10-13T23:25:03.765Z,68.58
2017-10-13T23:27:30.777Z,68.09
2017-10-13T23:29:57.140Z,68.66
2017-10-13T23:32:24.237Z,68.63
2017-10-13T23:34:50.517Z,68.32
2017-10-13T23:37:17.509Z,68.13
2017-10-13T23:39:43.773Z,67.91
2017-10-13T23:42:10.066Z,67.98
2017-10-13T23:44:36.369Z,68.79
2017-10-13T23:47:02.612Z,68.44
2017-10-13T23:49:28.918Z,68.56
2017-10-13T23:51:55.218Z,68.23
2017-10-13T23:54:21.519Z,67.64
2017-10-13T23:56:47.793Z,67.51
2017-10-13T23:59:14.800Z,67.81
